<?xml version="1.0" encoding="UTF-8" standalone="no" ?>
<gpx xmlns="http://www.topografix.com/GPX/1/1" xmlns:xsi="http://www.w3.org/2001/XMLSchema-instance" xsi:schemaLocation="http://www.topografix.com/GPX/1/1 http://www.topografix.com/GPX/1/1/gpx.xsd" version="1.1" creator="VisuGPX - https://www.visugpx.com">
  <metadata>
    <name>Tour de France 2019</name>
    <desc><![CDATA[4272km en 2 mois en tandem avec notre petit chien dans le panier avant]]></desc>
  </metadata>
  <trk>
    <name><![CDATA[Tracé 20191104-103740]]></name>
    <trkseg>
      <trkpt lat="45.67668" lon="-0.46531">
        <ele>10.38</ele>
        <time>2019-11-04T09:57:49Z</time>
      </trkpt>
      <trkpt lat="45.67579" lon="-0.46555">
        <ele>10.245</ele>
        <time>2019-11-04T09:58:22Z</time>
      </trkpt>
      <trkpt lat="45.67577" lon="-0.46652">
        <ele>8.633</ele>
        <time>2019-11-04T10:01:25Z</time>
      </trkpt>
      <trkpt lat="45.67587" lon="-0.46749">
        <ele>18.391</ele>
        <time>2019-11-04T10:01:55Z</time>
      </trkpt>
      <trkpt lat="45.67612" lon="-0.46872">
        <ele>22.387</ele>
        <time>2019-11-04T10:02:28Z</time>
      </trkpt>
      <trkpt lat="45.67653" lon="-0.46997">
        <ele>11.127</ele>
        <time>2019-11-04T10:03:01Z</time>
      </trkpt>
      <trkpt lat="45.67663" lon="-0.4713">
        <ele>7.452</ele>
        <time>2019-11-04T10:03:31Z</time>
      </trkpt>
      <trkpt lat="45.67675" lon="-0.47228">
        <ele>11.058</ele>
        <time>2019-11-04T10:04:04Z</time>
      </trkpt>
      <trkpt lat="45.67686" lon="-0.47321">
        <ele>14.048</ele>
        <time>2019-11-04T10:04:37Z</time>
      </trkpt>
      <trkpt lat="45.6771" lon="-0.47428">
        <ele>13.355</ele>
        <time>2019-11-04T10:05:07Z</time>
      </trkpt>
      <trkpt lat="45.67786" lon="-0.47473">
        <ele>15.705</ele>
        <time>2019-11-04T10:05:40Z</time>
      </trkpt>
      <trkpt lat="45.67929" lon="-0.47386">
        <ele>16.971</ele>
        <time>2019-11-04T10:06:13Z</time>
      </trkpt>
      <trkpt lat="45.68073" lon="-0.47291">
        <ele>4.425</ele>
        <time>2019-11-04T10:06:43Z</time>
      </trkpt>
      <trkpt lat="45.68228" lon="-0.47194">
        <ele>2.053</ele>
        <time>2019-11-04T10:07:16Z</time>
      </trkpt>
      <trkpt lat="45.68368" lon="-0.47103">
        <ele>3.422</ele>
        <time>2019-11-04T10:07:49Z</time>
      </trkpt>
      <trkpt lat="45.68464" lon="-0.47134">
        <ele>4.478</ele>
        <time>2019-11-04T10:08:19Z</time>
      </trkpt>
      <trkpt lat="45.68537" lon="-0.47284">
        <ele>4.582</ele>
        <time>2019-11-04T10:08:52Z</time>
      </trkpt>
      <trkpt lat="45.68607" lon="-0.47422">
        <ele>5.61</ele>
        <time>2019-11-04T10:09:25Z</time>
      </trkpt>
      <trkpt lat="45.68667" lon="-0.47544">
        <ele>5.344</ele>
        <time>2019-11-04T10:09:55Z</time>
      </trkpt>
      <trkpt lat="45.68732" lon="-0.47677">
        <ele>4.756</ele>
        <time>2019-11-04T10:10:28Z</time>
      </trkpt>
      <trkpt lat="45.68794" lon="-0.478">
        <ele>5.075</ele>
        <time>2019-11-04T10:10:58Z</time>
      </trkpt>
      <trkpt lat="45.68862" lon="-0.47937">
        <ele>4.187</ele>
        <time>2019-11-04T10:11:31Z</time>
      </trkpt>
      <trkpt lat="45.68918" lon="-0.4805">
        <ele>5.216</ele>
        <time>2019-11-04T10:12:04Z</time>
      </trkpt>
      <trkpt lat="45.68965" lon="-0.48142">
        <ele>9.532</ele>
        <time>2019-11-04T10:12:34Z</time>
      </trkpt>
      <trkpt lat="45.69006" lon="-0.48225">
        <ele>9.568</ele>
        <time>2019-11-04T10:13:07Z</time>
      </trkpt>
      <trkpt lat="45.69045" lon="-0.48304">
        <ele>11.848</ele>
        <time>2019-11-04T10:13:40Z</time>
      </trkpt>
      <trkpt lat="45.69082" lon="-0.48383">
        <ele>7.535</ele>
        <time>2019-11-04T10:14:10Z</time>
      </trkpt>
      <trkpt lat="45.69123" lon="-0.48458">
        <ele>5.241</ele>
        <time>2019-11-04T10:14:43Z</time>
      </trkpt>
      <trkpt lat="45.69112" lon="-0.48439">
        <ele>2.713</ele>
        <time>2019-11-04T10:17:52Z</time>
      </trkpt>
      <trkpt lat="45.69076" lon="-0.48369">
        <ele>1.78</ele>
        <time>2019-11-04T10:18:22Z</time>
      </trkpt>
      <trkpt lat="45.69037" lon="-0.4829">
        <ele>1.789</ele>
        <time>2019-11-04T10:18:55Z</time>
      </trkpt>
      <trkpt lat="45.68999" lon="-0.48214">
        <ele>3.103</ele>
        <time>2019-11-04T10:19:28Z</time>
      </trkpt>
      <trkpt lat="45.68963" lon="-0.48135">
        <ele>3.945</ele>
        <time>2019-11-04T10:19:58Z</time>
      </trkpt>
      <trkpt lat="45.68913" lon="-0.4804">
        <ele>2.437</ele>
        <time>2019-11-04T10:20:31Z</time>
      </trkpt>
      <trkpt lat="45.68866" lon="-0.47946">
        <ele>2.203</ele>
        <time>2019-11-04T10:21:04Z</time>
      </trkpt>
      <trkpt lat="45.6881" lon="-0.47834">
        <ele>3.624</ele>
        <time>2019-11-04T10:21:34Z</time>
      </trkpt>
      <trkpt lat="45.68747" lon="-0.47706">
        <ele>2.292</ele>
        <time>2019-11-04T10:22:07Z</time>
      </trkpt>
      <trkpt lat="45.68689" lon="-0.47589">
        <ele>2.652</ele>
        <time>2019-11-04T10:22:40Z</time>
      </trkpt>
      <trkpt lat="45.68642" lon="-0.47492">
        <ele>2.752</ele>
        <time>2019-11-04T10:23:19Z</time>
      </trkpt>
      <trkpt lat="45.68618" lon="-0.47447">
        <ele>1.528</ele>
        <time>2019-11-04T10:24:01Z</time>
      </trkpt>
      <trkpt lat="45.68589" lon="-0.47389">
        <ele>2.086</ele>
        <time>2019-11-04T10:25:28Z</time>
      </trkpt>
      <trkpt lat="45.68542" lon="-0.47296">
        <ele>1.866</ele>
        <time>2019-11-04T10:26:01Z</time>
      </trkpt>
      <trkpt lat="45.68478" lon="-0.47165">
        <ele>3.372</ele>
        <time>2019-11-04T10:26:34Z</time>
      </trkpt>
      <trkpt lat="45.6842" lon="-0.47045">
        <ele>5.23</ele>
        <time>2019-11-04T10:27:07Z</time>
      </trkpt>
      <trkpt lat="45.68377" lon="-0.46963">
        <ele>3.478</ele>
        <time>2019-11-04T10:34:04Z</time>
      </trkpt>
      <trkpt lat="45.68426" lon="-0.47065">
        <ele>4.668</ele>
        <time>2019-11-04T10:34:37Z</time>
      </trkpt>
      <trkpt lat="45.6834" lon="-0.47121">
        <ele>4.385</ele>
        <time>2019-11-04T10:35:10Z</time>
      </trkpt>
      <trkpt lat="45.68255" lon="-0.47177">
        <ele>4.356</ele>
        <time>2019-11-04T10:35:40Z</time>
      </trkpt>
      <trkpt lat="45.68163" lon="-0.47235">
        <ele>3.594</ele>
        <time>2019-11-04T10:36:13Z</time>
      </trkpt>
      <trkpt lat="45.68063" lon="-0.47299">
        <ele>1.455</ele>
        <time>2019-11-04T10:36:46Z</time>
      </trkpt>
      <trkpt lat="45.67979" lon="-0.47345">
        <ele>4.586</ele>
        <time>2019-11-04T10:37:16Z</time>
      </trkpt>
      <trkpt lat="45.67903" lon="-0.47395">
        <ele>7.293</ele>
        <time>2019-11-04T10:37:49Z</time>
      </trkpt>
      <trkpt lat="45.67835" lon="-0.47443">
        <ele>12.358</ele>
        <time>2019-11-04T10:38:22Z</time>
      </trkpt>
      <trkpt lat="45.67748" lon="-0.47489">
        <ele>12.665</ele>
        <time>2019-11-04T10:38:52Z</time>
      </trkpt>
      <trkpt lat="45.67644" lon="-0.47522">
        <ele>13.957</ele>
        <time>2019-11-04T10:39:25Z</time>
      </trkpt>
      <trkpt lat="45.67547" lon="-0.47557">
        <ele>12.056</ele>
        <time>2019-11-04T10:39:58Z</time>
      </trkpt>
      <trkpt lat="45.67454" lon="-0.47586">
        <ele>13.917</ele>
        <time>2019-11-04T10:40:28Z</time>
      </trkpt>
      <trkpt lat="45.67352" lon="-0.47622">
        <ele>11.794</ele>
        <time>2019-11-04T10:41:01Z</time>
      </trkpt>
      <trkpt lat="45.67269" lon="-0.47656">
        <ele>13.158</ele>
        <time>2019-11-04T10:41:31Z</time>
      </trkpt>
      <trkpt lat="45.67292" lon="-0.47839">
        <ele>10.211</ele>
        <time>2019-11-04T10:42:04Z</time>
      </trkpt>
      <trkpt lat="45.67331" lon="-0.48004">
        <ele>6.581</ele>
        <time>2019-11-04T10:42:37Z</time>
      </trkpt>
      <trkpt lat="45.67373" lon="-0.48148">
        <ele>4.553</ele>
        <time>2019-11-04T10:43:07Z</time>
      </trkpt>
      <trkpt lat="45.67419" lon="-0.48304">
        <ele>5.861</ele>
        <time>2019-11-04T10:43:40Z</time>
      </trkpt>
      <trkpt lat="45.67484" lon="-0.48461">
        <ele>4.295</ele>
        <time>2019-11-04T10:44:13Z</time>
      </trkpt>
      <trkpt lat="45.67534" lon="-0.48523">
        <ele>8.96</ele>
        <time>2019-11-04T10:44:43Z</time>
      </trkpt>
      <trkpt lat="45.67608" lon="-0.48517">
        <ele>13.965</ele>
        <time>2019-11-04T10:45:16Z</time>
      </trkpt>
      <trkpt lat="45.6772" lon="-0.48403">
        <ele>12.248</ele>
        <time>2019-11-04T10:45:49Z</time>
      </trkpt>
      <trkpt lat="45.67842" lon="-0.48232">
        <ele>11.506</ele>
        <time>2019-11-04T10:46:19Z</time>
      </trkpt>
      <trkpt lat="45.67904" lon="-0.48329">
        <ele>18.235</ele>
        <time>2019-11-04T10:46:52Z</time>
      </trkpt>
      <trkpt lat="45.6797" lon="-0.48434">
        <ele>17.88</ele>
        <time>2019-11-04T10:47:25Z</time>
      </trkpt>
      <trkpt lat="45.68044" lon="-0.48502">
        <ele>26.252</ele>
        <time>2019-11-04T10:47:55Z</time>
      </trkpt>
      <trkpt lat="45.68127" lon="-0.48568">
        <ele>29.198</ele>
        <time>2019-11-04T10:48:28Z</time>
      </trkpt>
      <trkpt lat="45.68214" lon="-0.4867">
        <ele>22.139</ele>
        <time>2019-11-04T10:49:01Z</time>
      </trkpt>
      <trkpt lat="45.68279" lon="-0.48822">
        <ele>22.141</ele>
        <time>2019-11-04T10:49:31Z</time>
      </trkpt>
      <trkpt lat="45.68386" lon="-0.48927">
        <ele>26.812</ele>
        <time>2019-11-04T10:50:04Z</time>
      </trkpt>
      <trkpt lat="45.68454" lon="-0.48981">
        <ele>26.624</ele>
        <time>2019-11-04T10:57:58Z</time>
      </trkpt>
      <trkpt lat="45.68506" lon="-0.49037">
        <ele>25.05</ele>
        <time>2019-11-04T10:59:22Z</time>
      </trkpt>
      <trkpt lat="45.68513" lon="-0.49223">
        <ele>17.255</ele>
        <time>2019-11-04T10:59:55Z</time>
      </trkpt>
      <trkpt lat="45.68491" lon="-0.49444">
        <ele>10.841</ele>
        <time>2019-11-04T11:00:28Z</time>
      </trkpt>
      <trkpt lat="45.68507" lon="-0.49583">
        <ele>10.073</ele>
        <time>2019-11-04T11:00:58Z</time>
      </trkpt>
      <trkpt lat="45.68598" lon="-0.49727">
        <ele>12.67</ele>
        <time>2019-11-04T11:01:31Z</time>
      </trkpt>
      <trkpt lat="45.68717" lon="-0.4986">
        <ele>13.636</ele>
        <time>2019-11-04T11:02:04Z</time>
      </trkpt>
      <trkpt lat="45.68848" lon="-0.4994">
        <ele>11.893</ele>
        <time>2019-11-04T11:02:34Z</time>
      </trkpt>
      <trkpt lat="45.68971" lon="-0.50094">
        <ele>8.769</ele>
        <time>2019-11-04T11:03:07Z</time>
      </trkpt>
      <trkpt lat="45.69037" lon="-0.50194">
        <ele>5.696</ele>
        <time>2019-11-04T11:03:40Z</time>
      </trkpt>
      <trkpt lat="45.69112" lon="-0.50306">
        <ele>6.014</ele>
        <time>2019-11-04T11:04:10Z</time>
      </trkpt>
      <trkpt lat="45.69203" lon="-0.50441">
        <ele>3.615</ele>
        <time>2019-11-04T11:04:43Z</time>
      </trkpt>
      <trkpt lat="45.69287" lon="-0.5061">
        <ele>10.757</ele>
        <time>2019-11-04T11:05:16Z</time>
      </trkpt>
      <trkpt lat="45.69393" lon="-0.50775">
        <ele>11.561</ele>
        <time>2019-11-04T11:05:46Z</time>
      </trkpt>
      <trkpt lat="45.6945" lon="-0.50927">
        <ele>10.049</ele>
        <time>2019-11-04T11:06:19Z</time>
      </trkpt>
      <trkpt lat="45.69533" lon="-0.51095">
        <ele>9.341</ele>
        <time>2019-11-04T11:06:52Z</time>
      </trkpt>
      <trkpt lat="45.69596" lon="-0.51252">
        <ele>10.289</ele>
        <time>2019-11-04T11:07:22Z</time>
      </trkpt>
      <trkpt lat="45.69696" lon="-0.5143">
        <ele>9.061</ele>
        <time>2019-11-04T11:07:55Z</time>
      </trkpt>
      <trkpt lat="45.69683" lon="-0.51603">
        <ele>9.756</ele>
        <time>2019-11-04T11:08:28Z</time>
      </trkpt>
      <trkpt lat="45.69664" lon="-0.51751">
        <ele>9.377</ele>
        <time>2019-11-04T11:08:58Z</time>
      </trkpt>
      <trkpt lat="45.69664" lon="-0.51921">
        <ele>8.105</ele>
        <time>2019-11-04T11:09:31Z</time>
      </trkpt>
      <trkpt lat="45.69672" lon="-0.52076">
        <ele>5.949</ele>
        <time>2019-11-04T11:10:01Z</time>
      </trkpt>
      <trkpt lat="45.69658" lon="-0.52261">
        <ele>8.101</ele>
        <time>2019-11-04T11:10:34Z</time>
      </trkpt>
      <trkpt lat="45.69659" lon="-0.52436">
        <ele>4.005</ele>
        <time>2019-11-04T11:11:07Z</time>
      </trkpt>
      <trkpt lat="45.69644" lon="-0.52589">
        <ele>6.792</ele>
        <time>2019-11-04T11:11:37Z</time>
      </trkpt>
      <trkpt lat="45.69637" lon="-0.5277">
        <ele>9.64</ele>
        <time>2019-11-04T11:12:10Z</time>
      </trkpt>
      <trkpt lat="45.69626" lon="-0.52965">
        <ele>5.947</ele>
        <time>2019-11-04T11:12:43Z</time>
      </trkpt>
      <trkpt lat="45.69617" lon="-0.53121">
        <ele>3.253</ele>
        <time>2019-11-04T11:13:13Z</time>
      </trkpt>
      <trkpt lat="45.69644" lon="-0.53296">
        <ele>2.761</ele>
        <time>2019-11-04T11:13:46Z</time>
      </trkpt>
      <trkpt lat="45.69677" lon="-0.53468">
        <ele>8.843</ele>
        <time>2019-11-04T11:14:19Z</time>
      </trkpt>
      <trkpt lat="45.69705" lon="-0.53608">
        <ele>5.531</ele>
        <time>2019-11-04T11:14:49Z</time>
      </trkpt>
      <trkpt lat="45.69727" lon="-0.53723">
        <ele>7.475</ele>
        <time>2019-11-04T11:15:22Z</time>
      </trkpt>
      <trkpt lat="45.69748" lon="-0.53827">
        <ele>8.231</ele>
        <time>2019-11-04T11:15:55Z</time>
      </trkpt>
      <trkpt lat="45.69768" lon="-0.53931">
        <ele>9.846</ele>
        <time>2019-11-04T11:16:25Z</time>
      </trkpt>
      <trkpt lat="45.69791" lon="-0.54039">
        <ele>14.18</ele>
        <time>2019-11-04T11:16:58Z</time>
      </trkpt>
      <trkpt lat="45.69819" lon="-0.54161">
        <ele>14.935</ele>
        <time>2019-11-04T11:17:31Z</time>
      </trkpt>
      <trkpt lat="45.69861" lon="-0.54276">
        <ele>15.847</ele>
        <time>2019-11-04T11:18:01Z</time>
      </trkpt>
      <trkpt lat="45.69924" lon="-0.5445">
        <ele>14.144</ele>
        <time>2019-11-04T11:18:34Z</time>
      </trkpt>
      <trkpt lat="45.70029" lon="-0.54629">
        <ele>10.536</ele>
        <time>2019-11-04T11:19:07Z</time>
      </trkpt>
      <trkpt lat="45.70074" lon="-0.54814">
        <ele>9.809</ele>
        <time>2019-11-04T11:19:37Z</time>
      </trkpt>
      <trkpt lat="45.70124" lon="-0.54957">
        <ele>13.465</ele>
        <time>2019-11-04T11:20:10Z</time>
      </trkpt>
      <trkpt lat="45.70169" lon="-0.55072">
        <ele>14.725</ele>
        <time>2019-11-04T11:20:43Z</time>
      </trkpt>
      <trkpt lat="45.70234" lon="-0.55171">
        <ele>15.035</ele>
        <time>2019-11-04T11:21:13Z</time>
      </trkpt>
      <trkpt lat="45.70316" lon="-0.55334">
        <ele>14.133</ele>
        <time>2019-11-04T11:21:46Z</time>
      </trkpt>
      <trkpt lat="45.70359" lon="-0.55507">
        <ele>11.379</ele>
        <time>2019-11-04T11:22:19Z</time>
      </trkpt>
      <trkpt lat="45.7038" lon="-0.5564">
        <ele>12.628</ele>
        <time>2019-11-04T11:22:49Z</time>
      </trkpt>
      <trkpt lat="45.70399" lon="-0.55781">
        <ele>14.542</ele>
        <time>2019-11-04T11:23:22Z</time>
      </trkpt>
      <trkpt lat="45.70397" lon="-0.55918">
        <ele>18.065</ele>
        <time>2019-11-04T11:23:55Z</time>
      </trkpt>
      <trkpt lat="45.70385" lon="-0.56038">
        <ele>16.761</ele>
        <time>2019-11-04T11:24:25Z</time>
      </trkpt>
      <trkpt lat="45.70394" lon="-0.56174">
        <ele>20.845</ele>
        <time>2019-11-04T11:24:58Z</time>
      </trkpt>
      <trkpt lat="45.70426" lon="-0.56318">
        <ele>18.837</ele>
        <time>2019-11-04T11:25:31Z</time>
      </trkpt>
      <trkpt lat="45.70499" lon="-0.56426">
        <ele>18.782</ele>
        <time>2019-11-04T11:26:01Z</time>
      </trkpt>
      <trkpt lat="45.7062" lon="-0.56526">
        <ele>17.147</ele>
        <time>2019-11-04T11:26:34Z</time>
      </trkpt>
      <trkpt lat="45.7075" lon="-0.56683">
        <ele>11.992</ele>
        <time>2019-11-04T11:27:07Z</time>
      </trkpt>
      <trkpt lat="45.70797" lon="-0.56823">
        <ele>14.299</ele>
        <time>2019-11-04T11:27:37Z</time>
      </trkpt>
      <trkpt lat="45.70817" lon="-0.56979">
        <ele>16.232</ele>
        <time>2019-11-04T11:28:10Z</time>
      </trkpt>
      <trkpt lat="45.70865" lon="-0.57166">
        <ele>14.409</ele>
        <time>2019-11-04T11:28:43Z</time>
      </trkpt>
      <trkpt lat="45.70923" lon="-0.57301">
        <ele>16.298</ele>
        <time>2019-11-04T11:29:13Z</time>
      </trkpt>
      <trkpt lat="45.7095" lon="-0.57443">
        <ele>14.662</ele>
        <time>2019-11-04T11:29:46Z</time>
      </trkpt>
      <trkpt lat="45.70842" lon="-0.57523">
        <ele>15.534</ele>
        <time>2019-11-04T11:30:19Z</time>
      </trkpt>
      <trkpt lat="45.70937" lon="-0.57663">
        <ele>13.402</ele>
        <time>2019-11-04T11:30:49Z</time>
      </trkpt>
      <trkpt lat="45.71088" lon="-0.57785">
        <ele>10.6</ele>
        <time>2019-11-04T11:31:22Z</time>
      </trkpt>
      <trkpt lat="45.7121" lon="-0.57896">
        <ele>9.563</ele>
        <time>2019-11-04T11:31:52Z</time>
      </trkpt>
      <trkpt lat="45.7125" lon="-0.58056">
        <ele>13.747</ele>
        <time>2019-11-04T11:32:25Z</time>
      </trkpt>
      <trkpt lat="45.71242" lon="-0.58236">
        <ele>7.75</ele>
        <time>2019-11-04T11:32:58Z</time>
      </trkpt>
      <trkpt lat="45.71223" lon="-0.58384">
        <ele>7.717</ele>
        <time>2019-11-04T11:33:28Z</time>
      </trkpt>
      <trkpt lat="45.71199" lon="-0.58558">
        <ele>6.052</ele>
        <time>2019-11-04T11:34:01Z</time>
      </trkpt>
      <trkpt lat="45.71156" lon="-0.58744">
        <ele>9.917</ele>
        <time>2019-11-04T11:34:34Z</time>
      </trkpt>
      <trkpt lat="45.71118" lon="-0.58883">
        <ele>14.33</ele>
        <time>2019-11-04T11:35:04Z</time>
      </trkpt>
      <trkpt lat="45.71018" lon="-0.59021">
        <ele>11.385</ele>
        <time>2019-11-04T11:35:37Z</time>
      </trkpt>
      <trkpt lat="45.70904" lon="-0.59131">
        <ele>9.473</ele>
        <time>2019-11-04T11:36:10Z</time>
      </trkpt>
      <trkpt lat="45.70797" lon="-0.59229">
        <ele>11.284</ele>
        <time>2019-11-04T11:36:40Z</time>
      </trkpt>
      <trkpt lat="45.70669" lon="-0.59345">
        <ele>9.327</ele>
        <time>2019-11-04T11:37:13Z</time>
      </trkpt>
      <trkpt lat="45.70637" lon="-0.59437">
        <ele>12.992</ele>
        <time>2019-11-04T11:37:46Z</time>
      </trkpt>
      <trkpt lat="45.70665" lon="-0.59558">
        <ele>14.056</ele>
        <time>2019-11-04T11:38:16Z</time>
      </trkpt>
      <trkpt lat="45.70709" lon="-0.59703">
        <ele>8.07</ele>
        <time>2019-11-04T11:38:49Z</time>
      </trkpt>
      <trkpt lat="45.70749" lon="-0.59834">
        <ele>6.775</ele>
        <time>2019-11-04T11:39:22Z</time>
      </trkpt>
      <trkpt lat="45.70782" lon="-0.59953">
        <ele>9.175</ele>
        <time>2019-11-04T11:39:52Z</time>
      </trkpt>
      <trkpt lat="45.70857" lon="-0.60123">
        <ele>4.261</ele>
        <time>2019-11-04T11:40:25Z</time>
      </trkpt>
      <trkpt lat="45.70969" lon="-0.60225">
        <ele>4.734</ele>
        <time>2019-11-04T11:40:58Z</time>
      </trkpt>
      <trkpt lat="45.71094" lon="-0.6027">
        <ele>5.442</ele>
        <time>2019-11-04T11:41:28Z</time>
      </trkpt>
      <trkpt lat="45.71182" lon="-0.60377">
        <ele>3.863</ele>
        <time>2019-11-04T11:42:01Z</time>
      </trkpt>
      <trkpt lat="45.71192" lon="-0.60545">
        <ele>5.916</ele>
        <time>2019-11-04T11:42:34Z</time>
      </trkpt>
      <trkpt lat="45.71201" lon="-0.60702">
        <ele>7.884</ele>
        <time>2019-11-04T11:43:04Z</time>
      </trkpt>
      <trkpt lat="45.71263" lon="-0.60874">
        <ele>7.785</ele>
        <time>2019-11-04T11:43:37Z</time>
      </trkpt>
      <trkpt lat="45.71298" lon="-0.61074">
        <ele>8.535</ele>
        <time>2019-11-04T11:44:10Z</time>
      </trkpt>
      <trkpt lat="45.71357" lon="-0.61248">
        <ele>4.741</ele>
        <time>2019-11-04T11:44:40Z</time>
      </trkpt>
      <trkpt lat="45.71416" lon="-0.61412">
        <ele>5.146</ele>
        <time>2019-11-04T11:45:13Z</time>
      </trkpt>
      <trkpt lat="45.71496" lon="-0.61567">
        <ele>10.543</ele>
        <time>2019-11-04T11:45:46Z</time>
      </trkpt>
      <trkpt lat="45.71544" lon="-0.61721">
        <ele>12.368</ele>
        <time>2019-11-04T11:46:16Z</time>
      </trkpt>
      <trkpt lat="45.716" lon="-0.61895">
        <ele>11.932</ele>
        <time>2019-11-04T11:46:49Z</time>
      </trkpt>
      <trkpt lat="45.71633" lon="-0.62062">
        <ele>14.316</ele>
        <time>2019-11-04T11:47:22Z</time>
      </trkpt>
      <trkpt lat="45.71657" lon="-0.62211">
        <ele>9.534</ele>
        <time>2019-11-04T11:47:52Z</time>
      </trkpt>
      <trkpt lat="45.71699" lon="-0.62354">
        <ele>10.176</ele>
        <time>2019-11-04T11:48:25Z</time>
      </trkpt>
      <trkpt lat="45.71749" lon="-0.62474">
        <ele>11.435</ele>
        <time>2019-11-04T11:48:58Z</time>
      </trkpt>
      <trkpt lat="45.71793" lon="-0.62592">
        <ele>10.825</ele>
        <time>2019-11-04T11:49:28Z</time>
      </trkpt>
      <trkpt lat="45.71826" lon="-0.62731">
        <ele>17.473</ele>
        <time>2019-11-04T11:50:01Z</time>
      </trkpt>
      <trkpt lat="45.7187" lon="-0.62891">
        <ele>14.945</ele>
        <time>2019-11-04T11:50:34Z</time>
      </trkpt>
      <trkpt lat="45.71925" lon="-0.63064">
        <ele>10.25</ele>
        <time>2019-11-04T11:51:04Z</time>
      </trkpt>
      <trkpt lat="45.72008" lon="-0.63142">
        <ele>10.166</ele>
        <time>2019-11-04T11:51:37Z</time>
      </trkpt>
      <trkpt lat="45.72055" lon="-0.63209">
        <ele>15.343</ele>
        <time>2019-11-04T11:52:07Z</time>
      </trkpt>
      <trkpt lat="45.72098" lon="-0.63271">
        <ele>16.001</ele>
        <time>2019-11-04T11:52:40Z</time>
      </trkpt>
      <trkpt lat="45.72139" lon="-0.63337">
        <ele>17.727</ele>
        <time>2019-11-04T11:53:13Z</time>
      </trkpt>
      <trkpt lat="45.72197" lon="-0.63372">
        <ele>21.84</ele>
        <time>2019-11-04T11:53:43Z</time>
      </trkpt>
      <trkpt lat="45.72257" lon="-0.63429">
        <ele>24.379</ele>
        <time>2019-11-04T11:54:16Z</time>
      </trkpt>
      <trkpt lat="45.72384" lon="-0.63426">
        <ele>24.919</ele>
        <time>2019-11-04T11:54:49Z</time>
      </trkpt>
      <trkpt lat="45.7261" lon="-0.6359">
        <ele>11.724</ele>
        <time>2019-11-04T11:55:19Z</time>
      </trkpt>
      <trkpt lat="45.72758" lon="-0.63725">
        <ele>7.656</ele>
        <time>2019-11-04T11:55:52Z</time>
      </trkpt>
      <trkpt lat="45.72777" lon="-0.6387">
        <ele>7.39</ele>
        <time>2019-11-04T11:57:31Z</time>
      </trkpt>
      <trkpt lat="45.72744" lon="-0.63947">
        <ele>9.863</ele>
        <time>2019-11-04T11:58:07Z</time>
      </trkpt>
      <trkpt lat="45.72692" lon="-0.6403">
        <ele>13.452</ele>
        <time>2019-11-04T11:58:40Z</time>
      </trkpt>
      <trkpt lat="45.72646" lon="-0.64092">
        <ele>17.188</ele>
        <time>2019-11-04T11:59:13Z</time>
      </trkpt>
      <trkpt lat="45.72631" lon="-0.64174">
        <ele>15.917</ele>
        <time>2019-11-04T11:59:43Z</time>
      </trkpt>
      <trkpt lat="45.728" lon="-0.643">
        <ele>12.64</ele>
        <time>2019-11-04T12:00:16Z</time>
      </trkpt>
      <trkpt lat="45.72879" lon="-0.6436">
        <ele>14.794</ele>
        <time>2019-11-04T12:00:49Z</time>
      </trkpt>
      <trkpt lat="45.72932" lon="-0.64399">
        <ele>20.43</ele>
        <time>2019-11-04T12:01:19Z</time>
      </trkpt>
      <trkpt lat="45.72995" lon="-0.64446">
        <ele>24.535</ele>
        <time>2019-11-04T12:01:55Z</time>
      </trkpt>
      <trkpt lat="45.73052" lon="-0.6449">
        <ele>28.711</ele>
        <time>2019-11-04T12:02:28Z</time>
      </trkpt>
      <trkpt lat="45.73107" lon="-0.64526">
        <ele>30.889</ele>
        <time>2019-11-04T12:02:58Z</time>
      </trkpt>
      <trkpt lat="45.73172" lon="-0.64551">
        <ele>33.188</ele>
        <time>2019-11-04T12:03:31Z</time>
      </trkpt>
      <trkpt lat="45.73241" lon="-0.64563">
        <ele>35.771</ele>
        <time>2019-11-04T12:04:04Z</time>
      </trkpt>
      <trkpt lat="45.73306" lon="-0.64551">
        <ele>42.034</ele>
        <time>2019-11-04T12:04:34Z</time>
      </trkpt>
      <trkpt lat="45.73384" lon="-0.64535">
        <ele>46.598</ele>
        <time>2019-11-04T12:05:07Z</time>
      </trkpt>
      <trkpt lat="45.73502" lon="-0.64488">
        <ele>45.024</ele>
        <time>2019-11-04T12:05:40Z</time>
      </trkpt>
      <trkpt lat="45.73626" lon="-0.64439">
        <ele>45.842</ele>
        <time>2019-11-04T12:06:10Z</time>
      </trkpt>
      <trkpt lat="45.73765" lon="-0.6436">
        <ele>41.536</ele>
        <time>2019-11-04T12:06:43Z</time>
      </trkpt>
      <trkpt lat="45.73973" lon="-0.64217">
        <ele>28.647</ele>
        <time>2019-11-04T12:07:16Z</time>
      </trkpt>
      <trkpt lat="45.74095" lon="-0.64057">
        <ele>19.441</ele>
        <time>2019-11-04T12:07:46Z</time>
      </trkpt>
      <trkpt lat="45.74176" lon="-0.63873">
        <ele>9.481</ele>
        <time>2019-11-04T12:08:19Z</time>
      </trkpt>
      <trkpt lat="45.74179" lon="-0.63876">
        <ele>9.25</ele>
        <time>2019-11-04T12:10:19Z</time>
      </trkpt>
      <trkpt lat="45.74193" lon="-0.63741">
        <ele>9.577</ele>
        <time>2019-11-04T12:10:49Z</time>
      </trkpt>
      <trkpt lat="45.74155" lon="-0.63608">
        <ele>9.577</ele>
        <time>2019-11-04T12:11:22Z</time>
      </trkpt>
      <trkpt lat="45.74097" lon="-0.63389">
        <ele>10.6</ele>
        <time>2019-11-04T12:11:55Z</time>
      </trkpt>
      <trkpt lat="45.74084" lon="-0.63187">
        <ele>8.369</ele>
        <time>2019-11-04T12:12:25Z</time>
      </trkpt>
      <trkpt lat="45.74088" lon="-0.63014">
        <ele>9.424</ele>
        <time>2019-11-04T12:12:58Z</time>
      </trkpt>
      <trkpt lat="45.74087" lon="-0.62816">
        <ele>11.616</ele>
        <time>2019-11-04T12:13:31Z</time>
      </trkpt>
      <trkpt lat="45.74093" lon="-0.62665">
        <ele>7.862</ele>
        <time>2019-11-04T12:14:01Z</time>
      </trkpt>
      <trkpt lat="45.74153" lon="-0.62551">
        <ele>9.988</ele>
        <time>2019-11-04T12:14:34Z</time>
      </trkpt>
      <trkpt lat="45.74156" lon="-0.62467">
        <ele>15.224</ele>
        <time>2019-11-04T12:15:04Z</time>
      </trkpt>
      <trkpt lat="45.74167" lon="-0.62464">
        <ele>10.134</ele>
        <time>2019-11-04T12:54:31.001Z</time>
      </trkpt>
      <trkpt lat="45.74173" lon="-0.62459">
        <ele>6.861</ele>
        <time>2019-11-04T13:02:19.001Z</time>
      </trkpt>
      <trkpt lat="45.74173" lon="-0.62458">
        <ele>6.861</ele>
        <time>2019-11-04T13:09:16Z</time>
      </trkpt>
      <trkpt lat="45.7418" lon="-0.62557">
        <ele>15.468</ele>
        <time>2019-11-04T13:10:19.001Z</time>
      </trkpt>
      <trkpt lat="45.74268" lon="-0.62592">
        <ele>16.626</ele>
        <time>2019-11-04T13:10:52.001Z</time>
      </trkpt>
      <trkpt lat="45.74366" lon="-0.62624">
        <ele>21.958</ele>
        <time>2019-11-04T13:11:22.001Z</time>
      </trkpt>
      <trkpt lat="45.74439" lon="-0.62778">
        <ele>17.032</ele>
        <time>2019-11-04T13:11:55.001Z</time>
      </trkpt>
      <trkpt lat="45.7447" lon="-0.62905">
        <ele>15.896</ele>
        <time>2019-11-04T13:12:28.001Z</time>
      </trkpt>
      <trkpt lat="45.74541" lon="-0.62909">
        <ele>15.041</ele>
        <time>2019-11-04T13:13:01.001Z</time>
      </trkpt>
      <trkpt lat="45.74626" lon="-0.6293">
        <ele>14.51</ele>
        <time>2019-11-04T13:13:34.001Z</time>
      </trkpt>
      <trkpt lat="45.74678" lon="-0.62882">
        <ele>8.624</ele>
        <time>2019-11-04T13:14:10.001Z</time>
      </trkpt>
      <trkpt lat="45.74699" lon="-0.62949">
        <ele>12.749</ele>
        <time>2019-11-04T13:14:40.001Z</time>
      </trkpt>
      <trkpt lat="45.74767" lon="-0.63055">
        <ele>10.485</ele>
        <time>2019-11-04T13:15:13.001Z</time>
      </trkpt>
      <trkpt lat="45.7493" lon="-0.63134">
        <ele>9.742</ele>
        <time>2019-11-04T13:15:46.001Z</time>
      </trkpt>
      <trkpt lat="45.75061" lon="-0.63156">
        <ele>9.975</ele>
        <time>2019-11-04T13:16:16Z</time>
      </trkpt>
      <trkpt lat="45.75205" lon="-0.63102">
        <ele>12.901</ele>
        <time>2019-11-04T13:16:49.001Z</time>
      </trkpt>
      <trkpt lat="45.75323" lon="-0.63114">
        <ele>14.802</ele>
        <time>2019-11-04T13:17:22.001Z</time>
      </trkpt>
      <trkpt lat="45.75385" lon="-0.6312">
        <ele>17.329</ele>
        <time>2019-11-04T13:17:52.001Z</time>
      </trkpt>
      <trkpt lat="45.75434" lon="-0.63167">
        <ele>23.239</ele>
        <time>2019-11-04T13:18:25.001Z</time>
      </trkpt>
      <trkpt lat="45.75475" lon="-0.63222">
        <ele>28.869</ele>
        <time>2019-11-04T13:18:58.001Z</time>
      </trkpt>
      <trkpt lat="45.75537" lon="-0.63278">
        <ele>33.728</ele>
        <time>2019-11-04T13:19:28.001Z</time>
      </trkpt>
      <trkpt lat="45.75623" lon="-0.6335">
        <ele>36.463</ele>
        <time>2019-11-04T13:20:01.001Z</time>
      </trkpt>
      <trkpt lat="45.75751" lon="-0.63496">
        <ele>31.246</ele>
        <time>2019-11-04T13:20:34.001Z</time>
      </trkpt>
      <trkpt lat="45.75922" lon="-0.63609">
        <ele>11.955</ele>
        <time>2019-11-04T13:21:04.001Z</time>
      </trkpt>
      <trkpt lat="45.75988" lon="-0.63676">
        <ele>16.684</ele>
        <time>2019-11-04T13:21:37.001Z</time>
      </trkpt>
      <trkpt lat="45.76031" lon="-0.6376">
        <ele>25.079</ele>
        <time>2019-11-04T13:22:10.001Z</time>
      </trkpt>
      <trkpt lat="45.76107" lon="-0.63789">
        <ele>29.732</ele>
        <time>2019-11-04T13:22:40.001Z</time>
      </trkpt>
      <trkpt lat="45.76197" lon="-0.6387">
        <ele>33.127</ele>
        <time>2019-11-04T13:23:13.001Z</time>
      </trkpt>
      <trkpt lat="45.76307" lon="-0.63964">
        <ele>30.791</ele>
        <time>2019-11-04T13:23:46.001Z</time>
      </trkpt>
      <trkpt lat="45.76424" lon="-0.64079">
        <ele>26.215</ele>
        <time>2019-11-04T13:24:16Z</time>
      </trkpt>
      <trkpt lat="45.7654" lon="-0.6422">
        <ele>32.364</ele>
        <time>2019-11-04T13:24:49.001Z</time>
      </trkpt>
      <trkpt lat="45.76621" lon="-0.64342">
        <ele>40.136</ele>
        <time>2019-11-04T13:25:22.001Z</time>
      </trkpt>
      <trkpt lat="45.76792" lon="-0.64514">
        <ele>21.631</ele>
        <time>2019-11-04T13:25:52.001Z</time>
      </trkpt>
      <trkpt lat="45.76878" lon="-0.64732">
        <ele>10.883</ele>
        <time>2019-11-04T13:26:25.001Z</time>
      </trkpt>
      <trkpt lat="45.77002" lon="-0.64948">
        <ele>7.6</ele>
        <time>2019-11-04T13:26:58.001Z</time>
      </trkpt>
      <trkpt lat="45.77077" lon="-0.64957">
        <ele>12.402</ele>
        <time>2019-11-04T13:27:28.001Z</time>
      </trkpt>
      <trkpt lat="45.77145" lon="-0.64976">
        <ele>24.342</ele>
        <time>2019-11-04T13:28:01.001Z</time>
      </trkpt>
      <trkpt lat="45.77202" lon="-0.64991">
        <ele>25.55</ele>
        <time>2019-11-04T13:28:31.001Z</time>
      </trkpt>
      <trkpt lat="45.77261" lon="-0.6502">
        <ele>30.976</ele>
        <time>2019-11-04T13:29:04.001Z</time>
      </trkpt>
      <trkpt lat="45.77322" lon="-0.65049">
        <ele>30.298</ele>
        <time>2019-11-04T13:29:37.001Z</time>
      </trkpt>
      <trkpt lat="45.77383" lon="-0.65076">
        <ele>28.908</ele>
        <time>2019-11-04T13:30:07.001Z</time>
      </trkpt>
      <trkpt lat="45.77458" lon="-0.65114">
        <ele>28.728</ele>
        <time>2019-11-04T13:30:40.001Z</time>
      </trkpt>
      <trkpt lat="45.77547" lon="-0.65154">
        <ele>30.306</ele>
        <time>2019-11-04T13:31:13.001Z</time>
      </trkpt>
      <trkpt lat="45.77642" lon="-0.65185">
        <ele>35.03</ele>
        <time>2019-11-04T13:31:43.001Z</time>
      </trkpt>
      <trkpt lat="45.77754" lon="-0.65222">
        <ele>28.675</ele>
        <time>2019-11-04T13:32:16Z</time>
      </trkpt>
      <trkpt lat="45.77864" lon="-0.65252">
        <ele>27.702</ele>
        <time>2019-11-04T13:32:49.001Z</time>
      </trkpt>
      <trkpt lat="45.77985" lon="-0.65282">
        <ele>23.805</ele>
        <time>2019-11-04T13:33:19.001Z</time>
      </trkpt>
      <trkpt lat="45.78158" lon="-0.653">
        <ele>13.3</ele>
        <time>2019-11-04T13:33:52.001Z</time>
      </trkpt>
      <trkpt lat="45.78296" lon="-0.65227">
        <ele>14.596</ele>
        <time>2019-11-04T13:34:25.001Z</time>
      </trkpt>
      <trkpt lat="45.78387" lon="-0.65212">
        <ele>19.594</ele>
        <time>2019-11-04T13:34:55.001Z</time>
      </trkpt>
      <trkpt lat="45.7845" lon="-0.65216">
        <ele>27.247</ele>
        <time>2019-11-04T13:35:28.001Z</time>
      </trkpt>
      <trkpt lat="45.78518" lon="-0.65219">
        <ele>31.688</ele>
        <time>2019-11-04T13:36:01.001Z</time>
      </trkpt>
      <trkpt lat="45.78604" lon="-0.65241">
        <ele>35.139</ele>
        <time>2019-11-04T13:36:31.001Z</time>
      </trkpt>
      <trkpt lat="45.787" lon="-0.65344">
        <ele>38.738</ele>
        <time>2019-11-04T13:37:04.001Z</time>
      </trkpt>
      <trkpt lat="45.7885" lon="-0.65324">
        <ele>35.247</ele>
        <time>2019-11-04T13:37:37.001Z</time>
      </trkpt>
      <trkpt lat="45.78901" lon="-0.65285">
        <ele>37.177</ele>
        <time>2019-11-04T13:38:07.001Z</time>
      </trkpt>
      <trkpt lat="45.78958" lon="-0.65237">
        <ele>34.34</ele>
        <time>2019-11-04T13:38:40.001Z</time>
      </trkpt>
      <trkpt lat="45.79027" lon="-0.65248">
        <ele>42.231</ele>
        <time>2019-11-04T13:39:13.001Z</time>
      </trkpt>
      <trkpt lat="45.79149" lon="-0.65266">
        <ele>42.828</ele>
        <time>2019-11-04T13:39:43.001Z</time>
      </trkpt>
      <trkpt lat="45.79413" lon="-0.65062">
        <ele>29.54</ele>
        <time>2019-11-04T13:40:16Z</time>
      </trkpt>
      <trkpt lat="45.7957" lon="-0.64996">
        <ele>21.131</ele>
        <time>2019-11-04T13:40:49.001Z</time>
      </trkpt>
      <trkpt lat="45.7977" lon="-0.64988">
        <ele>19.214</ele>
        <time>2019-11-04T13:41:19.001Z</time>
      </trkpt>
      <trkpt lat="45.79929" lon="-0.65022">
        <ele>17.257</ele>
        <time>2019-11-04T13:41:52.001Z</time>
      </trkpt>
      <trkpt lat="45.80118" lon="-0.64954">
        <ele>10.509</ele>
        <time>2019-11-04T13:42:25.001Z</time>
      </trkpt>
      <trkpt lat="45.8026" lon="-0.64904">
        <ele>12.266</ele>
        <time>2019-11-04T13:42:55.001Z</time>
      </trkpt>
      <trkpt lat="45.80375" lon="-0.64895">
        <ele>16.595</ele>
        <time>2019-11-04T13:43:28.001Z</time>
      </trkpt>
      <trkpt lat="45.80439" lon="-0.64889">
        <ele>16.596</ele>
        <time>2019-11-04T13:45:22.001Z</time>
      </trkpt>
      <trkpt lat="45.80615" lon="-0.64864">
        <ele>15.033</ele>
        <time>2019-11-04T13:45:52.001Z</time>
      </trkpt>
      <trkpt lat="45.80726" lon="-0.64912">
        <ele>16.374</ele>
        <time>2019-11-04T13:46:25.001Z</time>
      </trkpt>
      <trkpt lat="45.80853" lon="-0.64979">
        <ele>13.685</ele>
        <time>2019-11-04T13:46:58.001Z</time>
      </trkpt>
      <trkpt lat="45.80976" lon="-0.65011">
        <ele>14.553</ele>
        <time>2019-11-04T13:47:28.001Z</time>
      </trkpt>
      <trkpt lat="45.811" lon="-0.65055">
        <ele>12.488</ele>
        <time>2019-11-04T13:48:01.001Z</time>
      </trkpt>
      <trkpt lat="45.81215" lon="-0.65098">
        <ele>15.052</ele>
        <time>2019-11-04T13:48:34.001Z</time>
      </trkpt>
      <trkpt lat="45.81312" lon="-0.65144">
        <ele>16.663</ele>
        <time>2019-11-04T13:49:04.001Z</time>
      </trkpt>
      <trkpt lat="45.81404" lon="-0.6522">
        <ele>23.258</ele>
        <time>2019-11-04T13:49:37.001Z</time>
      </trkpt>
      <trkpt lat="45.81541" lon="-0.65341">
        <ele>18.622</ele>
        <time>2019-11-04T13:50:07.001Z</time>
      </trkpt>
      <trkpt lat="45.81683" lon="-0.65476">
        <ele>10.651</ele>
        <time>2019-11-04T13:50:40.001Z</time>
      </trkpt>
      <trkpt lat="45.81846" lon="-0.65627">
        <ele>8.391</ele>
        <time>2019-11-04T13:51:13.001Z</time>
      </trkpt>
      <trkpt lat="45.81948" lon="-0.65753">
        <ele>7.784</ele>
        <time>2019-11-04T13:51:43.001Z</time>
      </trkpt>
      <trkpt lat="45.82067" lon="-0.65871">
        <ele>11.436</ele>
        <time>2019-11-04T13:52:16Z</time>
      </trkpt>
      <trkpt lat="45.82175" lon="-0.6599">
        <ele>17.673</ele>
        <time>2019-11-04T13:52:49.001Z</time>
      </trkpt>
      <trkpt lat="45.82245" lon="-0.66111">
        <ele>8.28</ele>
        <time>2019-11-04T13:53:19.001Z</time>
      </trkpt>
      <trkpt lat="45.82296" lon="-0.66228">
        <ele>8.155</ele>
        <time>2019-11-04T13:53:52.001Z</time>
      </trkpt>
      <trkpt lat="45.82348" lon="-0.66341">
        <ele>10.045</ele>
        <time>2019-11-04T13:54:25.001Z</time>
      </trkpt>
      <trkpt lat="45.82423" lon="-0.66444">
        <ele>10.282</ele>
        <time>2019-11-04T13:54:55.001Z</time>
      </trkpt>
      <trkpt lat="45.82513" lon="-0.66562">
        <ele>9.52</ele>
        <time>2019-11-04T13:55:28.001Z</time>
      </trkpt>
      <trkpt lat="45.8264" lon="-0.66724">
        <ele>10.32</ele>
        <time>2019-11-04T13:56:01.001Z</time>
      </trkpt>
      <trkpt lat="45.82732" lon="-0.66837">
        <ele>12.867</ele>
        <time>2019-11-04T13:56:31.001Z</time>
      </trkpt>
      <trkpt lat="45.82855" lon="-0.66965">
        <ele>13.363</ele>
        <time>2019-11-04T13:57:04.001Z</time>
      </trkpt>
      <trkpt lat="45.82986" lon="-0.671">
        <ele>15.28</ele>
        <time>2019-11-04T13:57:37.001Z</time>
      </trkpt>
      <trkpt lat="45.83031" lon="-0.67162">
        <ele>16.745</ele>
        <time>2019-11-04T13:58:07.001Z</time>
      </trkpt>
      <trkpt lat="45.83105" lon="-0.67218">
        <ele>27.034</ele>
        <time>2019-11-04T13:58:40.001Z</time>
      </trkpt>
      <trkpt lat="45.83192" lon="-0.67365">
        <ele>20.455</ele>
        <time>2019-11-04T13:59:13.001Z</time>
      </trkpt>
      <trkpt lat="45.83264" lon="-0.67508">
        <ele>13.24</ele>
        <time>2019-11-04T13:59:43.001Z</time>
      </trkpt>
      <trkpt lat="45.83343" lon="-0.67696">
        <ele>18.35</ele>
        <time>2019-11-04T14:00:16Z</time>
      </trkpt>
      <trkpt lat="45.83446" lon="-0.67847">
        <ele>13.862</ele>
        <time>2019-11-04T14:00:49.001Z</time>
      </trkpt>
      <trkpt lat="45.83507" lon="-0.67909">
        <ele>20.039</ele>
        <time>2019-11-04T14:01:19.001Z</time>
      </trkpt>
      <trkpt lat="45.83591" lon="-0.6799">
        <ele>27.32</ele>
        <time>2019-11-04T14:01:52.001Z</time>
      </trkpt>
      <trkpt lat="45.83691" lon="-0.68083">
        <ele>27.095</ele>
        <time>2019-11-04T14:02:25.001Z</time>
      </trkpt>
      <trkpt lat="45.83808" lon="-0.68176">
        <ele>21.257</ele>
        <time>2019-11-04T14:02:55.001Z</time>
      </trkpt>
      <trkpt lat="45.8391" lon="-0.68255">
        <ele>21.201</ele>
        <time>2019-11-04T14:03:28.001Z</time>
      </trkpt>
      <trkpt lat="45.83917" lon="-0.68345">
        <ele>20.751</ele>
        <time>2019-11-04T14:04:01.001Z</time>
      </trkpt>
      <trkpt lat="45.83895" lon="-0.68421">
        <ele>21.63</ele>
        <time>2019-11-04T14:04:31.001Z</time>
      </trkpt>
      <trkpt lat="45.83878" lon="-0.68512">
        <ele>26.603</ele>
        <time>2019-11-04T14:05:04.001Z</time>
      </trkpt>
      <trkpt lat="45.83871" lon="-0.68639">
        <ele>26.459</ele>
        <time>2019-11-04T14:05:37.001Z</time>
      </trkpt>
      <trkpt lat="45.83847" lon="-0.68778">
        <ele>18.92</ele>
        <time>2019-11-04T14:06:07.001Z</time>
      </trkpt>
      <trkpt lat="45.83842" lon="-0.68981">
        <ele>13.933</ele>
        <time>2019-11-04T14:06:40.001Z</time>
      </trkpt>
      <trkpt lat="45.83915" lon="-0.69179">
        <ele>10.434</ele>
        <time>2019-11-04T14:07:13.001Z</time>
      </trkpt>
      <trkpt lat="45.83946" lon="-0.69255">
        <ele>13.845</ele>
        <time>2019-11-04T14:07:43.001Z</time>
      </trkpt>
      <trkpt lat="45.83971" lon="-0.69351">
        <ele>19.023</ele>
        <time>2019-11-04T14:08:16Z</time>
      </trkpt>
      <trkpt lat="45.83998" lon="-0.69446">
        <ele>17.848</ele>
        <time>2019-11-04T14:08:49.001Z</time>
      </trkpt>
      <trkpt lat="45.84158" lon="-0.69597">
        <ele>18.829</ele>
        <time>2019-11-04T14:09:19.001Z</time>
      </trkpt>
      <trkpt lat="45.84255" lon="-0.6968">
        <ele>17.766</ele>
        <time>2019-11-04T14:09:52.001Z</time>
      </trkpt>
      <trkpt lat="45.84291" lon="-0.69751">
        <ele>24.151</ele>
        <time>2019-11-04T14:10:22.001Z</time>
      </trkpt>
      <trkpt lat="45.8433" lon="-0.69825">
        <ele>17.89</ele>
        <time>2019-11-04T14:10:55.001Z</time>
      </trkpt>
      <trkpt lat="45.84388" lon="-0.69912">
        <ele>16.757</ele>
        <time>2019-11-04T14:11:28.001Z</time>
      </trkpt>
      <trkpt lat="45.84453" lon="-0.69987">
        <ele>14.925</ele>
        <time>2019-11-04T14:11:58.001Z</time>
      </trkpt>
      <trkpt lat="45.84557" lon="-0.70089">
        <ele>16.895</ele>
        <time>2019-11-04T14:12:31.001Z</time>
      </trkpt>
      <trkpt lat="45.84656" lon="-0.70183">
        <ele>20.451</ele>
        <time>2019-11-04T14:13:04.001Z</time>
      </trkpt>
      <trkpt lat="45.84687" lon="-0.70327">
        <ele>21.753</ele>
        <time>2019-11-04T14:13:34.001Z</time>
      </trkpt>
      <trkpt lat="45.84722" lon="-0.7051">
        <ele>16.799</ele>
        <time>2019-11-04T14:14:07.001Z</time>
      </trkpt>
      <trkpt lat="45.848" lon="-0.70561">
        <ele>27.529</ele>
        <time>2019-11-04T14:14:40.001Z</time>
      </trkpt>
      <trkpt lat="45.84865" lon="-0.70618">
        <ele>30.521</ele>
        <time>2019-11-04T14:15:10.001Z</time>
      </trkpt>
      <trkpt lat="45.84924" lon="-0.70719">
        <ele>29.923</ele>
        <time>2019-11-04T14:15:43.001Z</time>
      </trkpt>
      <trkpt lat="45.85001" lon="-0.70879">
        <ele>14.932</ele>
        <time>2019-11-04T14:16:16Z</time>
      </trkpt>
      <trkpt lat="45.8507" lon="-0.70981">
        <ele>16.538</ele>
        <time>2019-11-04T14:16:46.001Z</time>
      </trkpt>
      <trkpt lat="45.85132" lon="-0.71117">
        <ele>20.337</ele>
        <time>2019-11-04T14:17:19.001Z</time>
      </trkpt>
      <trkpt lat="45.8519" lon="-0.7127">
        <ele>24.029</ele>
        <time>2019-11-04T14:17:52.001Z</time>
      </trkpt>
      <trkpt lat="45.85227" lon="-0.71404">
        <ele>18.404</ele>
        <time>2019-11-04T14:18:22.001Z</time>
      </trkpt>
      <trkpt lat="45.8526" lon="-0.71577">
        <ele>15.438</ele>
        <time>2019-11-04T14:18:55.001Z</time>
      </trkpt>
      <trkpt lat="45.85281" lon="-0.71725">
        <ele>19.417</ele>
        <time>2019-11-04T14:19:28.001Z</time>
      </trkpt>
      <trkpt lat="45.85295" lon="-0.71813">
        <ele>26.519</ele>
        <time>2019-11-04T14:19:58.001Z</time>
      </trkpt>
      <trkpt lat="45.85315" lon="-0.71934">
        <ele>28.226</ele>
        <time>2019-11-04T14:20:31.001Z</time>
      </trkpt>
      <trkpt lat="45.85339" lon="-0.7208">
        <ele>26.709</ele>
        <time>2019-11-04T14:21:04.001Z</time>
      </trkpt>
      <trkpt lat="45.85362" lon="-0.72227">
        <ele>21.336</ele>
        <time>2019-11-04T14:21:34.001Z</time>
      </trkpt>
      <trkpt lat="45.85386" lon="-0.72393">
        <ele>19.553</ele>
        <time>2019-11-04T14:22:07.001Z</time>
      </trkpt>
      <trkpt lat="45.85413" lon="-0.72564">
        <ele>16.587</ele>
        <time>2019-11-04T14:22:40.001Z</time>
      </trkpt>
      <trkpt lat="45.85444" lon="-0.72723">
        <ele>15.585</ele>
        <time>2019-11-04T14:23:10.001Z</time>
      </trkpt>
      <trkpt lat="45.85506" lon="-0.72836">
        <ele>15.867</ele>
        <time>2019-11-04T14:23:43.001Z</time>
      </trkpt>
      <trkpt lat="45.85562" lon="-0.72938">
        <ele>20.608</ele>
        <time>2019-11-04T14:24:16Z</time>
      </trkpt>
      <trkpt lat="45.85612" lon="-0.73046">
        <ele>19.588</ele>
        <time>2019-11-04T14:24:46.001Z</time>
      </trkpt>
      <trkpt lat="45.85666" lon="-0.73166">
        <ele>19.289</ele>
        <time>2019-11-04T14:25:19.001Z</time>
      </trkpt>
      <trkpt lat="45.85737" lon="-0.73317">
        <ele>18.088</ele>
        <time>2019-11-04T14:25:52.001Z</time>
      </trkpt>
      <trkpt lat="45.85807" lon="-0.73449">
        <ele>12.991</ele>
        <time>2019-11-04T14:26:22.001Z</time>
      </trkpt>
      <trkpt lat="45.85852" lon="-0.73524">
        <ele>17.011</ele>
        <time>2019-11-04T14:26:55.001Z</time>
      </trkpt>
      <trkpt lat="45.85908" lon="-0.73615">
        <ele>16.78</ele>
        <time>2019-11-04T14:27:28.001Z</time>
      </trkpt>
      <trkpt lat="45.8598" lon="-0.73723">
        <ele>16.065</ele>
        <time>2019-11-04T14:27:58.001Z</time>
      </trkpt>
      <trkpt lat="45.86074" lon="-0.73756">
        <ele>20.399</ele>
        <time>2019-11-04T14:28:34.001Z</time>
      </trkpt>
      <trkpt lat="45.86135" lon="-0.73849">
        <ele>21.291</ele>
        <time>2019-11-04T14:29:07.001Z</time>
      </trkpt>
      <trkpt lat="45.86183" lon="-0.73951">
        <ele>22.709</ele>
        <time>2019-11-04T14:29:37.001Z</time>
      </trkpt>
      <trkpt lat="45.86251" lon="-0.74052">
        <ele>24.172</ele>
        <time>2019-11-04T14:30:10.001Z</time>
      </trkpt>
      <trkpt lat="45.86324" lon="-0.74123">
        <ele>23.074</ele>
        <time>2019-11-04T14:30:40.001Z</time>
      </trkpt>
      <trkpt lat="45.86402" lon="-0.74242">
        <ele>20.3</ele>
        <time>2019-11-04T14:31:13.001Z</time>
      </trkpt>
      <trkpt lat="45.86458" lon="-0.74383">
        <ele>22.655</ele>
        <time>2019-11-04T14:31:46.001Z</time>
      </trkpt>
      <trkpt lat="45.86491" lon="-0.74485">
        <ele>21.099</ele>
        <time>2019-11-04T14:32:16Z</time>
      </trkpt>
      <trkpt lat="45.8653" lon="-0.74605">
        <ele>24.048</ele>
        <time>2019-11-04T14:32:49.001Z</time>
      </trkpt>
      <trkpt lat="45.86565" lon="-0.74728">
        <ele>25.068</ele>
        <time>2019-11-04T14:33:22.001Z</time>
      </trkpt>
      <trkpt lat="45.86589" lon="-0.74843">
        <ele>28.443</ele>
        <time>2019-11-04T14:33:52.001Z</time>
      </trkpt>
      <trkpt lat="45.86618" lon="-0.74985">
        <ele>34.839</ele>
        <time>2019-11-04T14:34:25.001Z</time>
      </trkpt>
      <trkpt lat="45.86685" lon="-0.7517">
        <ele>26.355</ele>
        <time>2019-11-04T14:34:58.001Z</time>
      </trkpt>
      <trkpt lat="45.8673" lon="-0.7531">
        <ele>19.72</ele>
        <time>2019-11-04T14:35:28.001Z</time>
      </trkpt>
      <trkpt lat="45.86774" lon="-0.75424">
        <ele>22.529</ele>
        <time>2019-11-04T14:36:01.001Z</time>
      </trkpt>
      <trkpt lat="45.86803" lon="-0.75571">
        <ele>21.573</ele>
        <time>2019-11-04T14:36:34.001Z</time>
      </trkpt>
      <trkpt lat="45.86807" lon="-0.75714">
        <ele>19.189</ele>
        <time>2019-11-04T14:37:04.001Z</time>
      </trkpt>
      <trkpt lat="45.86817" lon="-0.75842">
        <ele>21.483</ele>
        <time>2019-11-04T14:37:37.001Z</time>
      </trkpt>
      <trkpt lat="45.86817" lon="-0.75976">
        <ele>25.692</ele>
        <time>2019-11-04T14:38:10.001Z</time>
      </trkpt>
      <trkpt lat="45.86807" lon="-0.76113">
        <ele>25.5</ele>
        <time>2019-11-04T14:38:40.001Z</time>
      </trkpt>
      <trkpt lat="45.86837" lon="-0.76274">
        <ele>24.707</ele>
        <time>2019-11-04T14:39:13.001Z</time>
      </trkpt>
      <trkpt lat="45.86873" lon="-0.76428">
        <ele>24.174</ele>
        <time>2019-11-04T14:39:46.001Z</time>
      </trkpt>
      <trkpt lat="45.86911" lon="-0.76564">
        <ele>25.765</ele>
        <time>2019-11-04T14:40:16Z</time>
      </trkpt>
      <trkpt lat="45.86966" lon="-0.7669">
        <ele>24.49</ele>
        <time>2019-11-04T14:40:49.001Z</time>
      </trkpt>
      <trkpt lat="45.86998" lon="-0.76874">
        <ele>20.517</ele>
        <time>2019-11-04T14:41:22.001Z</time>
      </trkpt>
      <trkpt lat="45.87035" lon="-0.77045">
        <ele>19.859</ele>
        <time>2019-11-04T14:41:52.001Z</time>
      </trkpt>
      <trkpt lat="45.87034" lon="-0.77185">
        <ele>23.077</ele>
        <time>2019-11-04T14:42:25.001Z</time>
      </trkpt>
      <trkpt lat="45.87041" lon="-0.77312">
        <ele>23.922</ele>
        <time>2019-11-04T14:42:58.001Z</time>
      </trkpt>
      <trkpt lat="45.87055" lon="-0.77428">
        <ele>22.676</ele>
        <time>2019-11-04T14:43:28.001Z</time>
      </trkpt>
      <trkpt lat="45.87068" lon="-0.77581">
        <ele>23.828</ele>
        <time>2019-11-04T14:44:01.001Z</time>
      </trkpt>
      <trkpt lat="45.87131" lon="-0.77732">
        <ele>24.343</ele>
        <time>2019-11-04T14:44:34.001Z</time>
      </trkpt>
      <trkpt lat="45.87217" lon="-0.77862">
        <ele>22.944</ele>
        <time>2019-11-04T14:45:04.001Z</time>
      </trkpt>
      <trkpt lat="45.87269" lon="-0.78069">
        <ele>21.961</ele>
        <time>2019-11-04T14:45:37.001Z</time>
      </trkpt>
      <trkpt lat="45.87339" lon="-0.78393">
        <ele>8.786</ele>
        <time>2019-11-04T14:46:10.001Z</time>
      </trkpt>
      <trkpt lat="45.8733" lon="-0.7862">
        <ele>2</ele>
        <time>2019-11-04T14:46:40.001Z</time>
      </trkpt>
      <trkpt lat="45.87348" lon="-0.78786">
        <ele>1.7</ele>
        <time>2019-11-04T14:47:13.001Z</time>
      </trkpt>
      <trkpt lat="45.87367" lon="-0.78949">
        <ele>0.612</ele>
        <time>2019-11-04T14:47:46.001Z</time>
      </trkpt>
      <trkpt lat="45.8737" lon="-0.79088">
        <ele>10.313</ele>
        <time>2019-11-04T14:48:16Z</time>
      </trkpt>
      <trkpt lat="45.87393" lon="-0.79203">
        <ele>9.288</ele>
        <time>2019-11-04T14:48:49.001Z</time>
      </trkpt>
      <trkpt lat="45.87419" lon="-0.79289">
        <ele>7.958</ele>
        <time>2019-11-04T14:49:22.001Z</time>
      </trkpt>
      <trkpt lat="45.87438" lon="-0.79364">
        <ele>11.939</ele>
        <time>2019-11-04T14:49:52.001Z</time>
      </trkpt>
      <trkpt lat="45.87459" lon="-0.79452">
        <ele>12.495</ele>
        <time>2019-11-04T14:50:25.001Z</time>
      </trkpt>
      <trkpt lat="45.87478" lon="-0.79557">
        <ele>12.875</ele>
        <time>2019-11-04T14:50:58.001Z</time>
      </trkpt>
      <trkpt lat="45.87455" lon="-0.79714">
        <ele>14.899</ele>
        <time>2019-11-04T14:51:28.001Z</time>
      </trkpt>
      <trkpt lat="45.87367" lon="-0.80001">
        <ele>4.478</ele>
        <time>2019-11-04T14:52:01.001Z</time>
      </trkpt>
      <trkpt lat="45.87336" lon="-0.80118">
        <ele>1.527</ele>
        <time>2019-11-04T14:52:31.001Z</time>
      </trkpt>
      <trkpt lat="45.87313" lon="-0.80206">
        <ele>7.39</ele>
        <time>2019-11-04T14:53:04.001Z</time>
      </trkpt>
      <trkpt lat="45.8729" lon="-0.80286">
        <ele>9.859</ele>
        <time>2019-11-04T14:53:37.001Z</time>
      </trkpt>
      <trkpt lat="45.8727" lon="-0.80359">
        <ele>15.738</ele>
        <time>2019-11-04T14:54:07.001Z</time>
      </trkpt>
      <trkpt lat="45.87245" lon="-0.80448">
        <ele>25.467</ele>
        <time>2019-11-04T14:54:43.001Z</time>
      </trkpt>
      <trkpt lat="45.87215" lon="-0.80526">
        <ele>27.007</ele>
        <time>2019-11-04T14:55:19.001Z</time>
      </trkpt>
      <trkpt lat="45.87217" lon="-0.80526">
        <ele>22.667</ele>
        <time>2019-11-04T15:07:43.001Z</time>
      </trkpt>
      <trkpt lat="45.87146" lon="-0.80603">
        <ele>23.63</ele>
        <time>2019-11-04T15:08:16Z</time>
      </trkpt>
      <trkpt lat="45.87047" lon="-0.80725">
        <ele>20.8</ele>
        <time>2019-11-04T15:08:49.001Z</time>
      </trkpt>
      <trkpt lat="45.87032" lon="-0.80841">
        <ele>26.779</ele>
        <time>2019-11-04T15:09:19.001Z</time>
      </trkpt>
      <trkpt lat="45.86983" lon="-0.80934">
        <ele>22.197</ele>
        <time>2019-11-04T15:09:52.001Z</time>
      </trkpt>
      <trkpt lat="45.86931" lon="-0.81012">
        <ele>23.048</ele>
        <time>2019-11-04T15:10:25.001Z</time>
      </trkpt>
      <trkpt lat="45.86942" lon="-0.81128">
        <ele>22.479</ele>
        <time>2019-11-04T15:10:55.001Z</time>
      </trkpt>
      <trkpt lat="45.86953" lon="-0.81264">
        <ele>20.187</ele>
        <time>2019-11-04T15:11:28.001Z</time>
      </trkpt>
      <trkpt lat="45.86963" lon="-0.81399">
        <ele>18.359</ele>
        <time>2019-11-04T15:12:01.001Z</time>
      </trkpt>
      <trkpt lat="45.86969" lon="-0.81528">
        <ele>19.459</ele>
        <time>2019-11-04T15:12:31.001Z</time>
      </trkpt>
      <trkpt lat="45.8708" lon="-0.8168">
        <ele>24.905</ele>
        <time>2019-11-04T15:13:04.001Z</time>
      </trkpt>
      <trkpt lat="45.874" lon="-0.81781">
        <ele>0.075</ele>
        <time>2019-11-04T15:13:37.001Z</time>
      </trkpt>
      <trkpt lat="45.87519" lon="-0.81797">
        <ele>5.603</ele>
        <time>2019-11-04T15:14:07.001Z</time>
      </trkpt>
      <trkpt lat="45.8763" lon="-0.81901">
        <ele>2.078</ele>
        <time>2019-11-04T15:14:40.001Z</time>
      </trkpt>
      <trkpt lat="45.87712" lon="-0.8201">
        <ele>2.957</ele>
        <time>2019-11-04T15:15:13.001Z</time>
      </trkpt>
      <trkpt lat="45.87789" lon="-0.82111">
        <ele>2.59</ele>
        <time>2019-11-04T15:15:43.001Z</time>
      </trkpt>
      <trkpt lat="45.87894" lon="-0.82133">
        <ele>4.019</ele>
        <time>2019-11-04T15:16:16Z</time>
      </trkpt>
      <trkpt lat="45.88013" lon="-0.82114">
        <ele>6.158</ele>
        <time>2019-11-04T15:16:49.001Z</time>
      </trkpt>
      <trkpt lat="45.8809" lon="-0.8204">
        <ele>8.479</ele>
        <time>2019-11-04T15:17:19.001Z</time>
      </trkpt>
      <trkpt lat="45.88162" lon="-0.81917">
        <ele>12.583</ele>
        <time>2019-11-04T15:17:52.001Z</time>
      </trkpt>
      <trkpt lat="45.88209" lon="-0.81758">
        <ele>9.947</ele>
        <time>2019-11-04T15:18:25.001Z</time>
      </trkpt>
      <trkpt lat="45.88257" lon="-0.81558">
        <ele>8.621</ele>
        <time>2019-11-04T15:18:55.001Z</time>
      </trkpt>
      <trkpt lat="45.88407" lon="-0.81266">
        <ele>7.44</ele>
        <time>2019-11-04T15:19:28.001Z</time>
      </trkpt>
      <trkpt lat="45.88485" lon="-0.81112">
        <ele>5.996</ele>
        <time>2019-11-04T15:20:01.001Z</time>
      </trkpt>
      <trkpt lat="45.88614" lon="-0.8093">
        <ele>4.154</ele>
        <time>2019-11-04T15:20:31.001Z</time>
      </trkpt>
      <trkpt lat="45.88747" lon="-0.80766">
        <ele>5.293</ele>
        <time>2019-11-04T15:21:04.001Z</time>
      </trkpt>
      <trkpt lat="45.88868" lon="-0.80613">
        <ele>8.754</ele>
        <time>2019-11-04T15:21:37.001Z</time>
      </trkpt>
      <trkpt lat="45.88982" lon="-0.80472">
        <ele>5.552</ele>
        <time>2019-11-04T15:22:07.001Z</time>
      </trkpt>
      <trkpt lat="45.89121" lon="-0.80352">
        <ele>1.111</ele>
        <time>2019-11-04T15:22:40.001Z</time>
      </trkpt>
      <trkpt lat="45.89236" lon="-0.80182">
        <ele>4.472</ele>
        <time>2019-11-04T15:23:13.001Z</time>
      </trkpt>
      <trkpt lat="45.89288" lon="-0.79982">
        <ele>7.03</ele>
        <time>2019-11-04T15:23:43.001Z</time>
      </trkpt>
      <trkpt lat="45.89406" lon="-0.7982">
        <ele>5.506</ele>
        <time>2019-11-04T15:24:16Z</time>
      </trkpt>
      <trkpt lat="45.895" lon="-0.79727">
        <ele>8.765</ele>
        <time>2019-11-04T15:24:46.001Z</time>
      </trkpt>
      <trkpt lat="45.89578" lon="-0.7964">
        <ele>10.452</ele>
        <time>2019-11-04T15:25:19.001Z</time>
      </trkpt>
      <trkpt lat="45.89657" lon="-0.79553">
        <ele>17.043</ele>
        <time>2019-11-04T15:25:52.001Z</time>
      </trkpt>
      <trkpt lat="45.89712" lon="-0.7957">
        <ele>20.308</ele>
        <time>2019-11-04T15:26:22.001Z</time>
      </trkpt>
      <trkpt lat="45.89779" lon="-0.79768">
        <ele>14.008</ele>
        <time>2019-11-04T15:26:55.001Z</time>
      </trkpt>
      <trkpt lat="45.89862" lon="-0.79953">
        <ele>5.773</ele>
        <time>2019-11-04T15:27:28.001Z</time>
      </trkpt>
      <trkpt lat="45.89923" lon="-0.80151">
        <ele>3.9</ele>
        <time>2019-11-04T15:27:58.001Z</time>
      </trkpt>
      <trkpt lat="45.90044" lon="-0.80319">
        <ele>3.7</ele>
        <time>2019-11-04T15:28:31.001Z</time>
      </trkpt>
      <trkpt lat="45.90109" lon="-0.80414">
        <ele>4.68</ele>
        <time>2019-11-04T15:29:04.001Z</time>
      </trkpt>
      <trkpt lat="45.90151" lon="-0.80504">
        <ele>5.637</ele>
        <time>2019-11-04T15:29:34.001Z</time>
      </trkpt>
      <trkpt lat="45.90182" lon="-0.8061">
        <ele>8.866</ele>
        <time>2019-11-04T15:30:07.001Z</time>
      </trkpt>
      <trkpt lat="45.90195" lon="-0.80754">
        <ele>12.911</ele>
        <time>2019-11-04T15:30:40.001Z</time>
      </trkpt>
      <trkpt lat="45.90255" lon="-0.80869">
        <ele>15.496</ele>
        <time>2019-11-04T15:31:10.001Z</time>
      </trkpt>
      <trkpt lat="45.90325" lon="-0.81023">
        <ele>13.506</ele>
        <time>2019-11-04T15:31:43.001Z</time>
      </trkpt>
      <trkpt lat="45.90343" lon="-0.81192">
        <ele>8.493</ele>
        <time>2019-11-04T15:32:16Z</time>
      </trkpt>
      <trkpt lat="45.90333" lon="-0.81335">
        <ele>10.893</ele>
        <time>2019-11-04T15:32:46.001Z</time>
      </trkpt>
      <trkpt lat="45.90368" lon="-0.81489">
        <ele>9.022</ele>
        <time>2019-11-04T15:33:19.001Z</time>
      </trkpt>
      <trkpt lat="45.90417" lon="-0.81627">
        <ele>9.497</ele>
        <time>2019-11-04T15:33:52.001Z</time>
      </trkpt>
      <trkpt lat="45.90464" lon="-0.81765">
        <ele>7.269</ele>
        <time>2019-11-04T15:34:22.001Z</time>
      </trkpt>
      <trkpt lat="45.90497" lon="-0.81931">
        <ele>9.164</ele>
        <time>2019-11-04T15:34:55.001Z</time>
      </trkpt>
      <trkpt lat="45.90547" lon="-0.82222">
        <ele>2.499</ele>
        <time>2019-11-04T15:35:28.001Z</time>
      </trkpt>
      <trkpt lat="45.90687" lon="-0.82278">
        <ele>2.311</ele>
        <time>2019-11-04T15:35:58.001Z</time>
      </trkpt>
      <trkpt lat="45.90837" lon="-0.82335">
        <ele>2.518</ele>
        <time>2019-11-04T15:36:31.001Z</time>
      </trkpt>
      <trkpt lat="45.90962" lon="-0.82459">
        <ele>4.411</ele>
        <time>2019-11-04T15:37:04.001Z</time>
      </trkpt>
      <trkpt lat="45.91007" lon="-0.82586">
        <ele>8.829</ele>
        <time>2019-11-04T15:37:34.001Z</time>
      </trkpt>
      <trkpt lat="45.91056" lon="-0.82762">
        <ele>6.991</ele>
        <time>2019-11-04T15:38:07.001Z</time>
      </trkpt>
      <trkpt lat="45.91185" lon="-0.82914">
        <ele>5.552</ele>
        <time>2019-11-04T15:38:40.001Z</time>
      </trkpt>
      <trkpt lat="45.91216" lon="-0.83049">
        <ele>2.093</ele>
        <time>2019-11-04T15:39:10.001Z</time>
      </trkpt>
      <trkpt lat="45.91238" lon="-0.83197">
        <ele>4.022</ele>
        <time>2019-11-04T15:39:43.001Z</time>
      </trkpt>
      <trkpt lat="45.91264" lon="-0.83323">
        <ele>3.464</ele>
        <time>2019-11-04T15:40:16Z</time>
      </trkpt>
      <trkpt lat="45.91292" lon="-0.83436">
        <ele>5.081</ele>
        <time>2019-11-04T15:40:46.001Z</time>
      </trkpt>
      <trkpt lat="45.91325" lon="-0.83564">
        <ele>6.726</ele>
        <time>2019-11-04T15:41:19.001Z</time>
      </trkpt>
      <trkpt lat="45.91358" lon="-0.83695">
        <ele>5.53</ele>
        <time>2019-11-04T15:41:52.001Z</time>
      </trkpt>
      <trkpt lat="45.91432" lon="-0.83768">
        <ele>6.671</ele>
        <time>2019-11-04T15:42:22.001Z</time>
      </trkpt>
      <trkpt lat="45.91554" lon="-0.8371">
        <ele>5.584</ele>
        <time>2019-11-04T15:42:55.001Z</time>
      </trkpt>
      <trkpt lat="45.91687" lon="-0.8364">
        <ele>8.231</ele>
        <time>2019-11-04T15:43:28.001Z</time>
      </trkpt>
      <trkpt lat="45.91813" lon="-0.83608">
        <ele>8.733</ele>
        <time>2019-11-04T15:43:58.001Z</time>
      </trkpt>
      <trkpt lat="45.91941" lon="-0.83644">
        <ele>13.184</ele>
        <time>2019-11-04T15:44:31.001Z</time>
      </trkpt>
      <trkpt lat="45.92062" lon="-0.8374">
        <ele>7.177</ele>
        <time>2019-11-04T15:45:01.001Z</time>
      </trkpt>
      <trkpt lat="45.92139" lon="-0.83931">
        <ele>3.17</ele>
        <time>2019-11-04T15:45:34.001Z</time>
      </trkpt>
      <trkpt lat="45.92182" lon="-0.84044">
        <ele>3.228</ele>
        <time>2019-11-04T15:46:07.001Z</time>
      </trkpt>
      <trkpt lat="45.92209" lon="-0.84119">
        <ele>5.043</ele>
        <time>2019-11-04T15:46:37.001Z</time>
      </trkpt>
      <trkpt lat="45.92246" lon="-0.84195">
        <ele>8.892</ele>
        <time>2019-11-04T15:47:10.001Z</time>
      </trkpt>
      <trkpt lat="45.92288" lon="-0.84264">
        <ele>12.226</ele>
        <time>2019-11-04T15:47:43.001Z</time>
      </trkpt>
      <trkpt lat="45.92338" lon="-0.84333">
        <ele>14.56</ele>
        <time>2019-11-04T15:48:13.001Z</time>
      </trkpt>
      <trkpt lat="45.92418" lon="-0.84404">
        <ele>15.487</ele>
        <time>2019-11-04T15:48:46.001Z</time>
      </trkpt>
      <trkpt lat="45.925" lon="-0.84502">
        <ele>17.503</ele>
        <time>2019-11-04T15:49:19.001Z</time>
      </trkpt>
      <trkpt lat="45.92606" lon="-0.84582">
        <ele>18.462</ele>
        <time>2019-11-04T15:49:49.001Z</time>
      </trkpt>
      <trkpt lat="45.92696" lon="-0.8474">
        <ele>11.189</ele>
        <time>2019-11-04T15:50:22.001Z</time>
      </trkpt>
      <trkpt lat="45.92779" lon="-0.84881">
        <ele>4.838</ele>
        <time>2019-11-04T15:50:55.001Z</time>
      </trkpt>
      <trkpt lat="45.92847" lon="-0.8501">
        <ele>6.578</ele>
        <time>2019-11-04T15:51:25.001Z</time>
      </trkpt>
      <trkpt lat="45.92903" lon="-0.8514">
        <ele>8.32</ele>
        <time>2019-11-04T15:51:58.001Z</time>
      </trkpt>
      <trkpt lat="45.92932" lon="-0.85244">
        <ele>12.505</ele>
        <time>2019-11-04T15:52:31.001Z</time>
      </trkpt>
      <trkpt lat="45.92845" lon="-0.85289">
        <ele>13.477</ele>
        <time>2019-11-04T15:53:01.001Z</time>
      </trkpt>
      <trkpt lat="45.92763" lon="-0.85395">
        <ele>15.873</ele>
        <time>2019-11-04T15:53:34.001Z</time>
      </trkpt>
      <trkpt lat="45.92701" lon="-0.85531">
        <ele>20.042</ele>
        <time>2019-11-04T15:54:07.001Z</time>
      </trkpt>
    </trkseg>
  </trk>
</gpx>